createdAt,value
2023-11-24T00:02:34.607Z,98658.65
2023-11-24T00:05:11.306Z,98667.97
2023-11-24T00:07:51.339Z,98670.17
2023-11-24T00:10:26.978Z,98667.08
2023-11-24T00:13:03.696Z,98658.38
2023-11-24T00:15:39.947Z,98651.13
2023-11-24T00:18:16.243Z,98639.69
2023-11-24T00:20:51.997Z,98633.80
2023-11-24T00:23:26.711Z,98630.39
2023-11-24T00:26:02.771Z,98629.52
2023-11-24T00:28:38.461Z,98629.79
2023-11-24T00:31:27.372Z,98627.02
2023-11-24T00:34:03.384Z,98628.20
2023-11-24T00:36:38.275Z,98639.27
2023-11-24T00:39:16.391Z,98644.73
2023-11-24T00:41:52.127Z,98650.05
2023-11-24T00:44:29.021Z,98647.34
2023-11-24T00:47:04.996Z,98652.17
2023-11-24T00:49:41.856Z,98653.89
2023-11-24T00:52:18.256Z,98651.66
2023-11-24T00:54:54.505Z,98649.85
2023-11-24T00:57:31.477Z,98647.50
2023-11-24T01:00:09.021Z,98645.91
2023-11-24T01:02:48.665Z,98642.42
2023-11-24T01:05:25.159Z,98641.11
2023-11-24T01:08:01.155Z,98638.91
2023-11-24T01:10:37.117Z,98638.95
2023-11-24T01:13:11.998Z,98638.95
2023-11-24T01:15:47.006Z,98639.52
2023-11-24T01:18:23.312Z,98631.48
2023-11-24T01:20:57.817Z,98627.66
2023-11-24T01:23:33.487Z,98615.80
2023-11-24T01:26:09.082Z,98611.13
2023-11-24T01:28:45.841Z,98607.69
2023-11-24T01:31:22.626Z,98600.82
2023-11-24T01:33:58.379Z,98609.23
2023-11-24T01:36:40.396Z,98612.39
2023-11-24T01:39:17.019Z,98615.89
2023-11-24T01:41:53.252Z,98621.33
2023-11-24T01:44:29.236Z,98619.05
2023-11-24T01:47:08.037Z,98622.52
2023-11-24T01:49:43.725Z,98628.33
2023-11-24T01:52:20.732Z,98632.17
2023-11-24T01:54:57.487Z,98626.05
2023-11-24T01:57:33.755Z,98625.35
2023-11-24T02:00:15.067Z,98622.02
2023-11-24T02:02:49.360Z,98618.70
2023-11-24T02:05:25.117Z,98624.90
2023-11-24T02:08:03.980Z,98638.02
2023-11-24T02:10:40.400Z,98645.20
2023-11-24T02:13:16.955Z,98636.52
2023-11-24T02:15:57.452Z,98637.32
2023-11-24T02:18:35.130Z,98641.70
2023-11-24T02:21:10.391Z,98639.64
2023-11-24T02:23:48.374Z,98626.45
2023-11-24T02:26:25.197Z,98622.60
2023-11-24T02:29:00.661Z,98622.23
2023-11-24T02:31:37.460Z,98613.05
2023-11-24T02:34:12.085Z,98609.89
2023-11-24T02:36:53.559Z,98612.78
2023-11-24T02:39:28.573Z,98611.77
2023-11-24T02:42:04.721Z,98615.98
2023-11-24T02:44:43.350Z,98622.84
2023-11-24T02:47:18.426Z,98621.91
2023-11-24T02:49:55.313Z,98623.91
2023-11-24T02:52:30.634Z,98619.89
2023-11-24T02:55:08.218Z,98621.20
2023-11-24T02:57:45.510Z,98622.21
2023-11-24T03:00:23.214Z,98621.30
2023-11-24T03:03:05.301Z,98619.52
2023-11-24T03:05:40.120Z,98628.14
2023-11-24T03:08:15.929Z,98624.40
2023-11-24T03:10:55.322Z,98624.73
2023-11-24T03:13:31.544Z,98628.52
2023-11-24T03:16:08.475Z,98634.46
2023-11-24T03:18:44.987Z,98637.39
2023-11-24T03:21:22.652Z,98639.17
2023-11-24T03:24:01.641Z,98637.34
2023-11-24T03:26:37.871Z,98635.83
2023-11-24T03:29:13.644Z,98634.19
2023-11-24T03:31:49.327Z,98630.85
2023-11-24T03:34:26.686Z,98631.27
2023-11-24T03:37:03.416Z,98631.66
2023-11-24T03:39:40.744Z,98629.77
2023-11-24T03:42:17.150Z,98632.32
2023-11-24T03:44:54.825Z,98635.71
2023-11-24T03:47:32.346Z,98638.79
2023-11-24T03:50:08.728Z,98643.85
2023-11-24T03:52:45.694Z,98648.19
2023-11-24T03:55:19.742Z,98649.23
2023-11-24T03:57:56.795Z,98650.48
2023-11-24T04:00:33.511Z,98647.10
2023-11-24T04:03:17.503Z,98651.10
2023-11-24T04:05:53.803Z,98649.23
2023-11-24T04:08:31.882Z,98649.73
2023-11-24T04:11:08.372Z,98645.52
2023-11-24T04:13:45.234Z,98642.89
2023-11-24T04:16:21.238Z,98632.73
2023-11-24T04:18:57.383Z,98634.79
2023-11-24T04:21:35.346Z,98633.04
2023-11-24T04:24:12.182Z,98635.45
2023-11-24T04:26:48.075Z,98628.36
2023-11-24T04:29:25.654Z,98622.54
2023-11-24T04:32:01.654Z,98617.92
2023-11-24T04:34:41.513Z,98615.58
2023-11-24T04:37:16.329Z,98617.23
2023-11-24T04:39:54.303Z,98616.05
2023-11-24T04:42:30.965Z,98616.25
2023-11-24T04:45:07.464Z,98612.52
2023-11-24T04:47:43.835Z,98615.13
2023-11-24T04:50:19.275Z,98618.04
2023-11-24T04:52:56.339Z,98621.08
2023-11-24T04:55:30.576Z,98623.40
2023-11-24T04:58:06.507Z,98630.35
2023-11-24T05:00:42.967Z,98632.96
2023-11-24T05:03:20.335Z,98644.67
2023-11-24T05:05:56.391Z,98638.74
2023-11-24T05:08:30.894Z,98634.41
2023-11-24T05:11:07.704Z,98635.51
2023-11-24T05:13:46.671Z,98632.91
2023-11-24T05:16:22.386Z,98633.73
2023-11-24T05:18:59.843Z,98634.73
2023-11-24T05:21:36.136Z,98645.19
2023-11-24T05:24:12.997Z,98641.17
2023-11-24T05:26:49.954Z,98641.29
2023-11-24T05:29:27.038Z,98636.67
2023-11-24T05:32:01.490Z,98631.63
2023-11-24T05:34:37.641Z,98624.58
2023-11-24T05:37:13.826Z,98626.50
2023-11-24T05:39:47.544Z,98628.38
2023-11-24T05:42:22.753Z,98626.31
2023-11-24T05:45:00.430Z,98626.49
2023-11-24T05:47:35.758Z,98621.16
2023-11-24T05:50:20.601Z,98630.43
2023-11-24T05:52:57.672Z,98627.77
2023-11-24T05:55:35.526Z,98636.50
2023-11-24T05:58:12.641Z,98632.04
2023-11-24T06:00:49.259Z,98634.39
2023-11-24T06:03:23.806Z,98637.39
2023-11-24T06:06:01.889Z,98633.04
2023-11-24T06:08:37.081Z,98636.15
2023-11-24T06:11:11.563Z,98634.95
2023-11-24T06:13:49.008Z,98635.73
2023-11-24T06:16:24.067Z,98630.70
2023-11-24T06:19:02.004Z,98634.42
2023-11-24T06:21:42.678Z,98646.11
2023-11-24T06:24:17.606Z,98644.49
2023-11-24T06:26:53.914Z,98645.58
2023-11-24T06:29:31.509Z,98651.63
2023-11-24T06:32:09.354Z,98660.39
2023-11-24T06:34:45.272Z,98667.36
2023-11-24T06:37:21.744Z,98660.74
2023-11-24T06:39:59.710Z,98662.73
2023-11-24T06:42:35.452Z,98670.16
2023-11-24T06:45:15.169Z,98665.00
2023-11-24T06:47:52.731Z,98668.77
2023-11-24T06:50:34.888Z,98665.79
2023-11-24T06:53:13.080Z,98665.11
2023-11-24T06:55:53.161Z,98663.47
2023-11-24T06:58:27.610Z,98666.52
2023-11-24T07:01:02.800Z,98654.41
2023-11-24T07:03:41.732Z,98650.77
2023-11-24T07:06:17.614Z,98657.05
2023-11-24T07:08:54.163Z,98664.73
2023-11-24T07:11:29.068Z,98665.05
2023-11-24T07:14:09.453Z,98660.86
2023-11-24T07:16:44.883Z,98659.90
2023-11-24T07:19:24.178Z,98656.08
2023-11-24T07:22:04.366Z,98657.23
2023-11-24T07:24:44.108Z,98660.67
2023-11-24T07:27:20.012Z,98665.52
2023-11-24T07:29:56.712Z,98668.56
2023-11-24T07:32:33.206Z,98668.34
2023-11-24T07:35:11.828Z,98677.81
2023-11-24T07:37:50.856Z,98679.58
2023-11-24T07:40:27.019Z,98684.63
2023-11-24T07:43:02.672Z,98673.84
2023-11-24T07:45:38.148Z,98674.13
2023-11-24T07:48:13.857Z,98680.08
2023-11-24T07:50:49.371Z,98681.15
2023-11-24T07:53:26.535Z,98668.39
2023-11-24T07:56:05.896Z,98676.70
2023-11-24T07:58:41.523Z,98667.86
2023-11-24T08:01:18.423Z,98672.81
2023-11-24T08:03:58.589Z,98675.05
2023-11-24T08:06:33.834Z,98671.28
2023-11-24T08:09:09.712Z,98674.44
2023-11-24T08:11:46.165Z,98674.34
2023-11-24T08:14:25.329Z,98678.02
2023-11-24T08:17:01.533Z,98675.11
2023-11-24T08:19:37.462Z,98677.77
2023-11-24T08:22:14.675Z,98676.88
2023-11-24T08:24:48.534Z,98673.96
2023-11-24T08:27:24.661Z,98678.06
2023-11-24T08:30:03.394Z,98676.73
2023-11-24T08:32:38.202Z,98674.97
2023-11-24T08:35:21.693Z,98672.06
2023-11-24T08:37:57.872Z,98672.02
2023-11-24T08:40:31.527Z,98675.67
2023-11-24T08:43:09.605Z,98676.80
2023-11-24T08:45:45.867Z,98678.70
2023-11-24T08:48:21.415Z,98674.75
2023-11-24T08:50:56.200Z,98684.05
2023-11-24T08:53:30.172Z,98682.84
2023-11-24T08:56:05.588Z,98687.13
2023-11-24T08:58:41.400Z,98687.66
2023-11-24T09:01:17.207Z,98693.46
2023-11-24T09:03:51.212Z,98684.15
2023-11-24T09:06:33.058Z,98683.91
2023-11-24T09:09:09.870Z,98687.86
2023-11-24T09:11:44.984Z,98683.91
2023-11-24T09:14:19.645Z,98687.89
2023-11-24T09:16:55.729Z,98686.27
2023-11-24T09:19:30.871Z,98688.15
2023-11-24T09:22:07.476Z,98686.66
2023-11-24T09:24:42.684Z,98682.23
2023-11-24T09:27:19.383Z,98683.11
2023-11-24T09:29:55.662Z,98684.89
2023-11-24T09:32:32.847Z,98677.42
2023-11-24T09:35:10.183Z,98686.08
2023-11-24T09:37:45.008Z,98689.07
2023-11-24T09:40:24.567Z,98682.90
2023-11-24T09:43:02.749Z,98675.38
2023-11-24T09:45:40.073Z,98667.15
2023-11-24T09:48:18.514Z,98668.19
2023-11-24T09:50:55.028Z,98669.06
2023-11-24T09:53:36.229Z,98665.68
2023-11-24T09:56:14.410Z,98662.12
2023-11-24T09:58:52.839Z,98660.39
2023-11-24T10:01:28.959Z,98656.52
2023-11-24T10:04:08.434Z,98652.85
2023-11-24T10:06:47.643Z,98650.45
2023-11-24T10:09:32.183Z,98644.08
2023-11-24T10:12:06.979Z,98641.77
2023-11-24T10:14:45.837Z,98640.61
2023-11-24T10:17:19.453Z,98642.55
2023-11-24T10:19:56.101Z,98640.75
2023-11-24T10:22:33.447Z,98638.03
2023-11-24T10:25:14.265Z,98639.25
2023-11-24T10:27:50.236Z,98633.44
2023-11-24T10:30:30.593Z,98632.66
2023-11-24T10:33:07.821Z,98638.21
2023-11-24T10:36:03.980Z,98636.55
2023-11-24T10:38:44.594Z,98631.73
2023-11-24T10:41:25.319Z,98623.92
2023-11-24T10:44:05.375Z,98625.36
2023-11-24T10:46:47.471Z,98630.10
2023-11-24T10:49:38.090Z,98625.81
2023-11-24T10:52:25.544Z,98624.42
2023-11-24T10:55:11.711Z,98617.81
2023-11-24T10:57:52.642Z,98619.46
2023-11-24T11:00:28.258Z,98614.21
2023-11-24T11:03:07.848Z,98611.92
2023-11-24T11:05:55.048Z,98609.45
2023-11-24T11:08:36.977Z,98603.11
2023-11-24T11:11:37.614Z,98603.64
2023-11-24T11:14:15.558Z,98611.35
2023-11-24T11:16:56.069Z,98612.11
2023-11-24T11:19:37.310Z,98616.06
2023-11-24T11:22:15.049Z,98614.35
2023-11-24T11:24:54.044Z,98613.91
2023-11-24T11:27:34.962Z,98612.67
2023-11-24T11:30:24.678Z,98613.07
2023-11-24T11:33:21.544Z,98617.95
2023-11-24T11:36:07.311Z,98615.52
2023-11-24T11:38:45.334Z,98614.84
2023-11-24T11:41:42.900Z,98611.90
2023-11-24T11:44:35.144Z,98619.59
2023-11-24T11:47:17.630Z,98624.69
2023-11-24T11:49:56.582Z,98625.46
2023-11-24T11:52:36.926Z,98628.02
2023-11-24T11:55:12.228Z,98630.97
2023-11-24T11:57:57.239Z,98623.68
2023-11-24T12:00:34.131Z,98620.33
2023-11-24T12:03:14.435Z,98620.29
2023-11-24T12:05:50.918Z,98617.27
2023-11-24T12:08:30.043Z,98617.85
2023-11-24T12:11:08.004Z,98616.45
2023-11-24T12:13:44.298Z,98620.98
2023-11-24T12:16:29.598Z,98629.11
2023-11-24T12:19:09.253Z,98631.42
2023-11-24T12:21:49.140Z,98634.16
2023-11-24T12:24:27.723Z,98636.22
2023-11-24T12:27:02.885Z,98631.33
2023-11-24T12:29:43.780Z,98630.70
2023-11-24T12:32:20.825Z,98631.08
2023-11-24T12:34:56.648Z,98636.00
2023-11-24T12:37:39.643Z,98634.66
2023-11-24T12:40:16.337Z,98638.95
2023-11-24T12:42:53.286Z,98633.48
2023-11-24T12:45:31.293Z,98634.95
2023-11-24T12:48:21.029Z,98641.36
2023-11-24T12:50:59.925Z,98644.92
2023-11-24T12:53:36.621Z,98643.55
2023-11-24T12:56:14.235Z,98640.27
2023-11-24T12:58:51.917Z,98633.88
2023-11-24T13:01:28.738Z,98638.14
2023-11-24T13:04:13.395Z,98636.45
2023-11-24T13:06:51.185Z,98640.91
2023-11-24T13:09:30.810Z,98645.45
2023-11-24T13:12:18.813Z,98632.94
2023-11-24T13:14:53.600Z,98628.41
2023-11-24T13:17:28.873Z,98627.84
2023-11-24T13:20:06.189Z,98634.73
2023-11-24T13:22:47.732Z,98630.36
2023-11-24T13:25:28.459Z,98629.42
2023-11-24T13:28:08.369Z,98629.98
2023-11-24T13:30:45.930Z,98632.19
2023-11-24T13:33:21.490Z,98632.86
2023-11-24T13:35:57.659Z,98635.26
2023-11-24T13:38:46.141Z,98636.88
2023-11-24T13:41:20.849Z,98633.84
2023-11-24T13:44:02.352Z,98634.06
2023-11-24T13:46:39.430Z,98637.52
2023-11-24T13:49:17.260Z,98632.18
2023-11-24T13:51:51.340Z,98628.23
2023-11-24T13:54:26.631Z,98635.77
2023-11-24T13:57:02.094Z,98629.63
2023-11-24T13:59:36.010Z,98628.58
2023-11-24T14:02:13.573Z,98626.24
2023-11-24T14:04:50.721Z,98627.75
2023-11-24T14:07:26.947Z,98629.23
2023-11-24T14:10:02.347Z,98623.77
2023-11-24T14:12:36.638Z,98618.28
2023-11-24T14:15:15.710Z,98613.75
2023-11-24T14:17:50.643Z,98612.57
2023-11-24T14:20:30.992Z,98607.85
2023-11-24T14:23:05.339Z,98609.02
2023-11-24T14:25:42.131Z,98604.77
2023-11-24T14:28:18.895Z,98596.44
2023-11-24T14:30:56.982Z,98598.27
2023-11-24T14:33:32.018Z,98591.89
2023-11-24T14:36:12.202Z,98592.25
2023-11-24T14:38:49.688Z,98585.55
2023-11-24T14:41:26.950Z,98584.85
2023-11-24T14:44:02.653Z,98579.42
2023-11-24T14:46:39.828Z,98580.95
2023-11-24T14:49:18.024Z,98573.17
2023-11-24T14:51:57.728Z,98573.53
2023-11-24T14:54:32.226Z,98573.50
2023-11-24T14:57:09.828Z,98574.19
2023-11-24T14:59:49.839Z,98571.02
2023-11-24T15:02:26.973Z,98568.40
2023-11-24T15:05:03.452Z,98561.75
2023-11-24T15:07:38.919Z,98559.69
2023-11-24T15:10:24.417Z,98558.79
2023-11-24T15:13:13.832Z,98562.65
2023-11-24T15:15:49.629Z,98553.86
2023-11-24T15:18:29.652Z,98551.20
2023-11-24T15:21:12.974Z,98547.40
2023-11-24T15:23:51.382Z,98543.41
2023-11-24T15:26:28.567Z,98545.04
2023-11-24T15:29:03.302Z,98549.19
2023-11-24T15:31:42.958Z,98554.43
2023-11-24T15:34:19.560Z,98561.58
2023-11-24T15:36:55.002Z,98559.09
2023-11-24T15:39:41.371Z,98555.19
2023-11-24T15:42:18.814Z,98546.02
2023-11-24T15:45:00.527Z,98539.63
2023-11-24T15:47:39.315Z,98535.92
2023-11-24T15:50:16.135Z,98538.63
2023-11-24T15:52:54.139Z,98541.78
2023-11-24T15:55:31.157Z,98545.00
2023-11-24T15:58:10.070Z,98547.20
2023-11-24T16:00:51.431Z,98546.70
2023-11-24T16:03:28.942Z,98547.84
2023-11-24T16:06:08.441Z,98549.95
2023-11-24T16:08:46.456Z,98554.31
2023-11-24T16:11:27.781Z,98551.27
2023-11-24T16:14:03.812Z,98553.49
2023-11-24T16:16:47.052Z,98551.20
2023-11-24T16:19:27.055Z,98553.02
2023-11-24T16:22:04.435Z,98551.30
2023-11-24T16:24:53.058Z,98553.77
2023-11-24T16:27:27.544Z,98552.40
2023-11-24T16:30:03.503Z,98561.64
2023-11-24T16:32:40.787Z,98559.28
2023-11-24T16:35:15.432Z,98559.59
2023-11-24T16:37:53.773Z,98559.61
2023-11-24T16:40:29.460Z,98555.58
2023-11-24T16:43:03.690Z,98556.57
2023-11-24T16:45:41.269Z,98552.70
2023-11-24T16:48:16.931Z,98559.02
2023-11-24T16:50:54.008Z,98549.61
2023-11-24T16:53:29.655Z,98542.15
2023-11-24T16:56:07.780Z,98540.77
2023-11-24T16:58:43.126Z,98540.52
2023-11-24T17:01:17.894Z,98539.61
2023-11-24T17:03:54.743Z,98533.58
2023-11-24T17:06:39.048Z,98529.52
2023-11-24T17:09:16.978Z,98527.66
2023-11-24T17:11:54.579Z,98528.80
2023-11-24T17:14:28.969Z,98527.04
2023-11-24T17:17:07.587Z,98526.41
2023-11-24T17:19:43.387Z,98533.09
2023-11-24T17:22:22.354Z,98532.02
2023-11-24T17:24:57.434Z,98525.23
2023-11-24T17:27:32.440Z,98512.92
2023-11-24T17:30:14.483Z,98515.14
2023-11-24T17:32:52.657Z,98516.42
2023-11-24T17:35:27.848Z,98522.18
2023-11-24T17:38:03.681Z,98523.22
2023-11-24T17:40:38.573Z,98521.52
2023-11-24T17:43:13.798Z,98519.63
2023-11-24T17:45:49.078Z,98517.08
2023-11-24T17:48:25.143Z,98520.96
2023-11-24T17:51:01.097Z,98521.86
2023-11-24T17:53:37.917Z,98521.10
2023-11-24T17:56:16.615Z,98527.86
2023-11-24T17:58:53.341Z,98529.34
2023-11-24T18:01:30.340Z,98530.43
2023-11-24T18:04:04.140Z,98532.14
2023-11-24T18:06:40.124Z,98527.84
2023-11-24T18:09:14.266Z,98526.85
2023-11-24T18:11:50.747Z,98523.48
2023-11-24T18:14:24.915Z,98515.27
2023-11-24T18:17:00.889Z,98515.88
2023-11-24T18:19:35.773Z,98512.33
2023-11-24T18:22:13.648Z,98517.73
2023-11-24T18:24:51.203Z,98516.80
2023-11-24T18:27:30.995Z,98516.02
2023-11-24T18:30:11.881Z,98515.79
2023-11-24T18:32:52.000Z,98520.29
2023-11-24T18:35:28.046Z,98522.45
2023-11-24T18:38:04.721Z,98524.30
2023-11-24T18:40:42.888Z,98526.52
2023-11-24T18:43:30.490Z,98522.16
2023-11-24T18:46:13.775Z,98523.61
2023-11-24T18:48:49.929Z,98521.06
2023-11-24T18:51:23.637Z,98525.26
2023-11-24T18:54:00.511Z,98524.73
2023-11-24T18:56:35.007Z,98524.73
2023-11-24T18:59:19.992Z,98521.45
2023-11-24T19:01:56.471Z,98516.73
2023-11-24T19:04:37.229Z,98512.80
2023-11-24T19:07:13.349Z,98511.95
2023-11-24T19:09:49.852Z,98511.39
2023-11-24T19:12:26.734Z,98507.27
2023-11-24T19:15:06.837Z,98508.06
2023-11-24T19:17:44.606Z,98504.98
2023-11-24T19:20:20.833Z,98501.96
2023-11-24T19:22:56.551Z,98497.45
2023-11-24T19:25:33.716Z,98491.81
2023-11-24T19:28:11.623Z,98495.34
2023-11-24T19:30:47.140Z,98497.17
2023-11-24T19:33:23.682Z,98494.52
2023-11-24T19:35:57.486Z,98497.52
2023-11-24T19:38:35.163Z,98496.95
2023-11-24T19:41:09.719Z,98499.46
2023-11-24T19:43:45.568Z,98499.41
2023-11-24T19:46:23.567Z,98499.73
2023-11-24T19:48:57.463Z,98498.95
2023-11-24T19:51:33.194Z,98500.89
2023-11-24T19:54:09.980Z,98505.17
2023-11-24T19:56:45.432Z,98506.61
2023-11-24T19:59:23.612Z,98505.80
2023-11-24T20:02:00.300Z,98507.35
2023-11-24T20:04:35.977Z,98507.54
2023-11-24T20:07:12.758Z,98507.64
2023-11-24T20:09:49.601Z,98509.80
2023-11-24T20:12:26.407Z,98509.35
2023-11-24T20:15:01.867Z,98515.57
2023-11-24T20:17:37.780Z,98518.81
2023-11-24T20:20:15.387Z,98515.74
2023-11-24T20:22:51.200Z,98520.47
2023-11-24T20:25:25.592Z,98518.02
2023-11-24T20:28:02.821Z,98516.82
2023-11-24T20:30:39.305Z,98515.98
2023-11-24T20:33:15.711Z,98513.36
2023-11-24T20:35:53.411Z,98516.92
2023-11-24T20:38:29.757Z,98516.73
2023-11-24T20:41:07.414Z,98511.54
2023-11-24T20:43:43.786Z,98512.05
2023-11-24T20:46:19.974Z,98506.22
2023-11-24T20:48:56.557Z,98510.92
2023-11-24T20:51:31.246Z,98509.02
2023-11-24T20:54:07.488Z,98511.64
2023-11-24T20:56:43.568Z,98521.06
2023-11-24T20:59:17.522Z,98522.53
2023-11-24T21:01:52.115Z,98526.19
2023-11-24T21:04:28.244Z,98524.98
2023-11-24T21:07:03.804Z,98532.81
2023-11-24T21:09:41.444Z,98539.27
2023-11-24T21:12:16.359Z,98543.54
2023-11-24T21:14:55.203Z,98544.39
2023-11-24T21:17:30.055Z,98546.36
2023-11-24T21:20:05.405Z,98547.75
2023-11-24T21:22:41.241Z,98547.63
2023-11-24T21:25:19.398Z,98545.88
2023-11-24T21:27:56.519Z,98549.95
2023-11-24T21:30:31.550Z,98550.46
2023-11-24T21:33:10.590Z,98551.07
2023-11-24T21:35:46.752Z,98545.52
2023-11-24T21:38:23.511Z,98541.58
2023-11-24T21:40:59.473Z,98536.58
2023-11-24T21:43:34.332Z,98535.36
2023-11-24T21:46:11.650Z,98537.84
2023-11-24T21:48:46.498Z,98534.27
2023-11-24T21:51:20.872Z,98535.27
2023-11-24T21:53:55.586Z,98533.77
2023-11-24T21:56:32.372Z,98534.77
2023-11-24T21:59:14.723Z,98534.21
2023-11-24T22:01:50.431Z,98538.02
2023-11-24T22:04:29.615Z,98540.55
2023-11-24T22:07:04.430Z,98538.11
2023-11-24T22:09:41.419Z,98537.33
2023-11-24T22:12:17.103Z,98535.45
2023-11-24T22:14:52.324Z,98537.06
2023-11-24T22:17:27.804Z,98537.52
2023-11-24T22:20:08.662Z,98537.77
2023-11-24T22:22:50.714Z,98544.29
2023-11-24T22:25:28.642Z,98544.29
2023-11-24T22:28:03.982Z,98547.69
2023-11-24T22:30:41.506Z,98542.86
2023-11-24T22:33:15.732Z,98545.33
2023-11-24T22:35:50.234Z,98547.77
2023-11-24T22:38:25.757Z,98550.61
2023-11-24T22:41:00.682Z,98553.34
2023-11-24T22:43:36.681Z,98556.21
2023-11-24T22:46:15.291Z,98557.11
2023-11-24T22:48:51.355Z,98561.13
2023-11-24T22:51:29.943Z,98561.93
2023-11-24T22:54:05.501Z,98564.58
2023-11-24T22:56:42.741Z,98566.54
2023-11-24T22:59:18.411Z,98577.38
2023-11-24T23:01:55.664Z,98582.11
2023-11-24T23:04:30.634Z,98585.31
2023-11-24T23:07:11.007Z,98590.56
2023-11-24T23:09:48.203Z,98590.43
2023-11-24T23:12:25.388Z,98591.70
2023-11-24T23:15:02.901Z,98596.66
2023-11-24T23:17:40.324Z,98599.45
2023-11-24T23:20:17.816Z,98602.25
2023-11-24T23:22:52.313Z,98604.25
2023-11-24T23:25:28.099Z,98600.42
2023-11-24T23:28:03.851Z,98604.73
2023-11-24T23:30:42.735Z,98605.14
2023-11-24T23:33:19.487Z,98605.52
2023-11-24T23:35:54.434Z,98611.36
2023-11-24T23:38:32.721Z,98610.74
2023-11-24T23:41:08.692Z,98612.96
2023-11-24T23:43:45.269Z,98614.09
2023-11-24T23:46:19.996Z,98622.57
2023-11-24T23:48:54.408Z,98625.89
2023-11-24T23:51:31.127Z,98628.15
2023-11-24T23:54:10.212Z,98630.05
2023-11-24T23:56:45.220Z,98636.64
2023-11-24T23:59:21.171Z,98637.45
